createdAt,value
2022-08-18T00:01:14.792Z,68.20
2022-08-18T00:03:56.173Z,67.80
2022-08-18T00:06:29.600Z,67.90
2022-08-18T00:08:59.162Z,68.00
2022-08-18T00:11:28.449Z,68.90
2022-08-18T00:14:21.844Z,69.30
2022-08-18T00:16:52.943Z,69.50
2022-08-18T00:19:45.561Z,69.80
2022-08-18T00:22:08.935Z,70.30
2022-08-18T00:24:48.237Z,70.70
2022-08-18T00:27:38.431Z,71.00
2022-08-18T00:30:09.627Z,71.20
2022-08-18T00:32:43.532Z,71.20
2022-08-18T00:35:29.124Z,71.40
2022-08-18T00:37:59.984Z,72.00
2022-08-18T00:40:37.233Z,72.70
2022-08-18T00:43:07.560Z,73.10
2022-08-18T00:45:40.581Z,73.80
2022-08-18T00:48:10.594Z,75.00
2022-08-18T00:50:53.459Z,75.80
2022-08-18T00:53:35.989Z,76.30
2022-08-18T00:56:14.932Z,76.40
2022-08-18T00:59:00.167Z,76.20
2022-08-18T01:01:31.789Z,76.30
2022-08-18T01:04:23.898Z,76.70
2022-08-18T01:06:57.703Z,77.00
2022-08-18T01:09:25.376Z,77.50
2022-08-18T01:11:53.171Z,78.00
2022-08-18T01:14:21.040Z,78.70
2022-08-18T01:17:08.942Z,79.10
2022-08-18T01:19:56.059Z,79.30
2022-08-18T01:22:48.834Z,79.50
2022-08-18T01:25:39.216Z,79.70
2022-08-18T01:28:07.280Z,79.80
2022-08-18T01:30:48.769Z,79.90
2022-08-18T01:33:17.923Z,80.10
2022-08-18T01:35:49.733Z,80.10
2022-08-18T01:38:23.021Z,80.50
2022-08-18T01:41:23.493Z,80.90
2022-08-18T01:43:39.749Z,80.80
2022-08-18T01:46:07.513Z,81.10
2022-08-18T01:48:37.034Z,81.60
2022-08-18T01:51:07.028Z,81.70
2022-08-18T01:53:34.817Z,82.00
2022-08-18T01:56:05.671Z,82.70
2022-08-18T01:58:34.733Z,83.00
2022-08-18T02:01:03.242Z,83.40
2022-08-18T02:03:38.147Z,84.10
2022-08-18T02:06:11.588Z,84.20
2022-08-18T02:08:42.248Z,85.30
2022-08-18T02:11:15.677Z,85.10
2022-08-18T02:13:43.423Z,85.30
2022-08-18T02:16:11.986Z,86.00
2022-08-18T02:18:48.250Z,85.80
2022-08-18T02:21:19.853Z,86.20
2022-08-18T02:23:53.242Z,86.50
2022-08-18T02:26:23.994Z,86.20
2022-08-18T02:28:51.461Z,85.70
2022-08-18T02:31:21.573Z,86.00
2022-08-18T02:33:51.923Z,86.60
2022-08-18T02:36:21.535Z,86.60
2022-08-18T02:38:54.717Z,86.70
2022-08-18T02:41:29.619Z,86.70
2022-08-18T02:43:59.625Z,86.30
2022-08-18T02:46:29.773Z,86.60
2022-08-18T02:49:00.210Z,87.40
2022-08-18T02:51:27.679Z,87.20
2022-08-18T02:53:55.133Z,87.40
2022-08-18T02:56:40.222Z,87.40
2022-08-18T02:59:13.280Z,87.80
2022-08-18T03:01:44.459Z,88.40
2022-08-18T03:04:15.930Z,88.00
2022-08-18T03:06:45.494Z,88.10
2022-08-18T03:09:15.551Z,88.40
2022-08-18T03:11:44.041Z,88.60
2022-08-18T03:14:12.589Z,88.80
2022-08-18T03:16:52.945Z,89.20
2022-08-18T03:19:24.403Z,89.80
2022-08-18T03:21:53.002Z,90.10
2022-08-18T03:24:22.835Z,90.20
2022-08-18T03:26:53.096Z,90.30
2022-08-18T03:29:21.773Z,90.50
2022-08-18T03:31:50.431Z,90.80
2022-08-18T03:34:20.433Z,90.80
2022-08-18T03:36:51.123Z,91.10
2022-08-18T03:39:20.029Z,91.30
2022-08-18T03:41:58.337Z,91.40
2022-08-18T03:44:37.252Z,91.50
2022-08-18T03:47:09.216Z,91.60
2022-08-18T03:49:37.561Z,91.60
2022-08-18T03:52:08.906Z,91.50
2022-08-18T03:54:39.185Z,92.10
2022-08-18T03:57:09.695Z,92.50
2022-08-18T03:59:37.732Z,92.70
2022-08-18T04:02:05.813Z,92.90
2022-08-18T04:04:33.848Z,93.10
2022-08-18T04:07:07.561Z,93.30
2022-08-18T04:09:36.987Z,93.50
2022-08-18T04:12:16.304Z,93.80
2022-08-18T04:14:48.761Z,94.10
2022-08-18T04:17:25.343Z,94.30
2022-08-18T04:19:54.702Z,94.40
2022-08-18T04:22:24.526Z,94.30
2022-08-18T04:24:54.393Z,94.30
2022-08-18T04:27:22.681Z,94.40
2022-08-18T04:29:50.578Z,94.60
2022-08-18T04:32:19.671Z,94.60
2022-08-18T04:34:47.081Z,95.00
2022-08-18T04:37:15.703Z,95.30
2022-08-18T04:39:44.029Z,95.40
2022-08-18T04:42:11.666Z,95.40
2022-08-18T04:44:39.395Z,95.30
2022-08-18T04:47:10.730Z,95.10
2022-08-18T04:49:38.340Z,94.80
2022-08-18T04:52:40.221Z,94.70
2022-08-18T04:55:10.049Z,94.80
2022-08-18T04:57:37.585Z,94.90
2022-08-18T05:00:07.248Z,95.10
2022-08-18T05:02:35.259Z,95.20
2022-08-18T05:05:04.295Z,95.00
2022-08-18T05:07:32.165Z,95.20
2022-08-18T05:09:59.586Z,95.10
2022-08-18T05:12:27.167Z,95.00
2022-08-18T05:14:57.562Z,95.10
2022-08-18T05:17:31.088Z,95.20
2022-08-18T05:20:01.723Z,95.40
2022-08-18T05:22:31.912Z,95.70
2022-08-18T05:25:00.670Z,95.60
2022-08-18T05:27:35.501Z,96.00
2022-08-18T05:30:03.600Z,96.00
2022-08-18T05:32:46.859Z,95.80
2022-08-18T05:35:28.632Z,95.60
2022-08-18T05:38:07.015Z,95.60
2022-08-18T05:40:36.228Z,95.40
2022-08-18T05:43:05.276Z,94.80
2022-08-18T05:45:34.950Z,94.50
2022-08-18T05:48:02.346Z,94.10
2022-08-18T05:50:35.421Z,93.50
2022-08-18T05:53:13.572Z,93.40
2022-08-18T05:56:20.240Z,92.80
2022-08-18T05:58:52.187Z,92.10
2022-08-18T06:01:27.909Z,91.40
2022-08-18T06:04:17.084Z,91.30
2022-08-18T06:06:47.806Z,90.90
2022-08-18T06:09:26.279Z,90.40
2022-08-18T06:11:59.241Z,90.20
2022-08-18T06:14:28.480Z,89.40
2022-08-18T06:17:05.906Z,89.00
2022-08-18T06:19:42.454Z,87.70
2022-08-18T06:22:19.181Z,86.90
2022-08-18T06:24:50.539Z,85.60
2022-08-18T06:27:41.703Z,85.30
2022-08-18T06:30:34.962Z,81.00
2022-08-18T06:33:30.042Z,79.40
2022-08-18T06:36:04.185Z,77.80
2022-08-18T06:38:45.749Z,78.10
2022-08-18T06:41:40.700Z,76.30
2022-08-18T06:44:11.417Z,76.70
2022-08-18T06:46:54.454Z,76.00
2022-08-18T06:50:05.450Z,75.50
2022-08-18T06:52:53.399Z,75.80
2022-08-18T06:55:37.408Z,74.20
2022-08-18T06:58:16.592Z,73.40
2022-08-18T07:00:56.097Z,73.00
2022-08-18T07:03:41.160Z,72.90
2022-08-18T07:06:21.636Z,72.30
2022-08-18T07:08:51.643Z,72.00
2022-08-18T07:11:29.659Z,71.60
2022-08-18T07:14:16.548Z,70.80
2022-08-18T07:16:58.291Z,70.70
2022-08-18T07:19:30.635Z,70.80
2022-08-18T07:22:14.811Z,69.90
2022-08-18T07:24:50.563Z,70.00
2022-08-18T07:27:41.683Z,69.40
2022-08-18T07:30:26.025Z,69.80
2022-08-18T07:33:05.470Z,68.60
2022-08-18T07:35:41.717Z,68.50
2022-08-18T07:38:41.472Z,68.40
2022-08-18T07:41:14.497Z,67.80
2022-08-18T07:43:54.693Z,68.40
2022-08-18T07:46:26.864Z,68.00
2022-08-18T07:48:59.464Z,67.80
2022-08-18T07:51:43.792Z,67.40
2022-08-18T07:54:49.268Z,66.70
2022-08-18T07:57:45.174Z,66.50
2022-08-18T08:00:41.100Z,66.40
2022-08-18T08:03:30.845Z,65.70
2022-08-18T08:06:16.115Z,65.60
2022-08-18T08:09:01.749Z,64.70
2022-08-18T08:11:58.656Z,64.70
2022-08-18T08:14:52.770Z,63.80
2022-08-18T08:17:31.028Z,64.30
2022-08-18T08:20:11.179Z,63.80
2022-08-18T08:22:40.794Z,63.70
2022-08-18T08:25:45.661Z,63.90
2022-08-18T08:28:52.469Z,63.50
2022-08-18T08:31:37.349Z,63.10
2022-08-18T08:34:41.365Z,62.90
2022-08-18T08:37:39.472Z,62.80
2022-08-18T08:40:28.264Z,63.00
2022-08-18T08:42:59.365Z,63.00
2022-08-18T08:45:39.458Z,61.90
2022-08-18T08:48:10.766Z,61.10
2022-08-18T08:51:06.508Z,61.60
2022-08-18T08:53:49.840Z,61.60
2022-08-18T08:56:21.629Z,61.70
2022-08-18T08:58:48.953Z,60.70
2022-08-18T09:01:43.437Z,61.40
2022-08-18T09:04:22.858Z,59.90
2022-08-18T09:07:08.901Z,59.30
2022-08-18T09:09:48.339Z,59.60
2022-08-18T09:12:19.919Z,59.10
2022-08-18T09:14:56.865Z,58.30
2022-08-18T09:17:45.471Z,59.20
2022-08-18T09:20:25.108Z,58.60
2022-08-18T09:23:03.131Z,58.80
2022-08-18T09:25:44.385Z,58.40
2022-08-18T09:28:42.563Z,58.70
2022-08-18T09:31:09.859Z,58.40
2022-08-18T09:33:45.972Z,57.60
2022-08-18T09:36:29.207Z,57.80
2022-08-18T09:39:33.932Z,57.70
2022-08-18T09:42:14.564Z,57.80
2022-08-18T09:47:36.326Z,57.00
2022-08-18T09:50:06.686Z,56.10
2022-08-18T09:50:38.147Z,58.10
2022-08-18T09:52:33.978Z,56.60
2022-08-18T09:55:28.862Z,55.20
2022-08-18T09:58:19.403Z,56.40
2022-08-18T10:01:20.635Z,57.20
2022-08-18T10:04:29.240Z,56.90
2022-08-18T10:07:41.942Z,55.40
2022-08-18T10:11:00.877Z,55.30
2022-08-18T10:13:39.173Z,54.70
2022-08-18T10:17:13.401Z,54.30
2022-08-18T10:19:52.593Z,54.50
2022-08-18T10:22:47.713Z,54.70
2022-08-18T10:25:42.472Z,54.50
2022-08-18T10:28:34.698Z,53.50
2022-08-18T10:31:06.146Z,52.50
2022-08-18T10:33:55.904Z,53.60
2022-08-18T10:36:50.732Z,53.90
2022-08-18T10:39:22.729Z,53.60
2022-08-18T10:41:54.278Z,52.80
2022-08-18T10:44:29.064Z,52.00
2022-08-18T10:47:00.235Z,53.30
2022-08-18T10:49:32.233Z,52.90
2022-08-18T10:52:03.061Z,52.70
2022-08-18T10:55:06.217Z,51.80
2022-08-18T10:57:55.491Z,50.80
2022-08-18T11:00:48.571Z,51.90
2022-08-18T11:03:51.043Z,50.90
2022-08-18T11:06:27.086Z,51.10
2022-08-18T11:09:01.461Z,52.30
2022-08-18T11:14:53.039Z,51.10
2022-08-18T11:17:28.981Z,51.00
2022-08-18T11:19:57.561Z,50.20
2022-08-18T11:25:45.119Z,49.40
2022-08-18T11:28:21.837Z,48.40
2022-08-18T11:34:20.330Z,49.30
2022-08-18T11:37:11.553Z,49.00
2022-08-18T11:39:47.668Z,50.00
2022-08-18T11:42:21.718Z,48.90
2022-08-18T11:44:55.527Z,49.30
2022-08-18T11:47:27.421Z,49.70
2022-08-18T11:50:13.160Z,49.20
2022-08-18T11:52:54.422Z,48.10
2022-08-18T11:55:30.657Z,48.90
2022-08-18T11:58:00.285Z,49.00
2022-08-18T12:03:31.856Z,48.20
2022-08-18T12:06:12.996Z,48.10
2022-08-18T12:09:04.036Z,47.90
2022-08-18T12:11:48.987Z,48.10
2022-08-18T12:14:30.773Z,49.70
2022-08-18T12:17:01.838Z,47.80
2022-08-18T12:19:31.320Z,49.30
2022-08-18T12:22:12.748Z,50.30
2022-08-18T12:24:40.080Z,50.00
2022-08-18T12:27:20.899Z,49.80
2022-08-18T12:29:57.713Z,48.20
2022-08-18T12:32:50.046Z,48.80
2022-08-18T12:35:14.122Z,49.60
2022-08-18T12:40:32.972Z,49.80
2022-08-18T12:43:00.228Z,48.90
2022-08-18T12:45:29.028Z,48.30
2022-08-18T12:47:56.032Z,49.00
2022-08-18T12:53:12.082Z,49.30
2022-08-18T12:55:45.706Z,49.50
2022-08-18T12:58:13.016Z,48.90
2022-08-18T13:00:41.307Z,49.10
2022-08-18T13:03:08.830Z,48.80
2022-08-18T13:05:37.423Z,48.90
2022-08-18T13:08:12.631Z,49.30
2022-08-18T13:10:58.332Z,48.70
2022-08-18T13:13:25.543Z,48.80
2022-08-18T13:16:01.127Z,48.40
2022-08-18T13:18:31.181Z,48.60
2022-08-18T13:20:59.206Z,48.70
2022-08-18T13:23:27.682Z,48.60
2022-08-18T13:26:01.237Z,48.50
2022-08-18T13:28:35.912Z,48.70
2022-08-18T13:31:19.561Z,48.10
2022-08-18T13:33:56.927Z,48.60
2022-08-18T13:36:28.841Z,48.50
2022-08-18T13:38:56.462Z,47.80
2022-08-18T13:43:52.363Z,48.00
2022-08-18T13:46:29.758Z,47.70
2022-08-18T13:49:00.041Z,48.00
2022-08-18T13:51:29.239Z,48.00
2022-08-18T13:54:18.316Z,48.40
2022-08-18T13:56:51.383Z,47.50
2022-08-18T13:59:21.861Z,47.80
2022-08-18T14:01:52.967Z,47.50
2022-08-18T14:04:22.415Z,47.80
2022-08-18T14:06:57.746Z,47.60
2022-08-18T14:09:37.226Z,47.80
2022-08-18T14:12:15.979Z,47.90
2022-08-18T14:14:54.124Z,46.80
2022-08-18T14:17:24.335Z,47.00
2022-08-18T14:20:15.572Z,46.60
2022-08-18T14:23:13.280Z,47.40
2022-08-18T14:26:00.148Z,47.00
2022-08-18T14:28:28.832Z,48.40
2022-08-18T14:30:58.343Z,47.70
2022-08-18T14:33:34.141Z,48.40
2022-08-18T14:36:16.375Z,47.80
2022-08-18T14:38:45.286Z,47.70
2022-08-18T14:41:13.980Z,47.50
2022-08-18T14:44:11.115Z,47.40
2022-08-18T14:46:33.043Z,47.80
2022-08-18T14:49:04.148Z,47.80
2022-08-18T14:51:33.680Z,47.30
2022-08-18T14:54:01.708Z,47.60
2022-08-18T14:56:29.859Z,47.10
2022-08-18T14:59:01.049Z,47.70
2022-08-18T15:01:28.197Z,46.60
2022-08-18T15:04:19.184Z,46.90
2022-08-18T15:06:55.657Z,47.20
2022-08-18T15:09:26.903Z,47.90
2022-08-18T15:11:56.463Z,47.50
2022-08-18T15:14:33.157Z,47.20
2022-08-18T15:17:11.725Z,47.80
2022-08-18T15:20:01.575Z,47.00
2022-08-18T15:22:47.892Z,47.30
2022-08-18T15:25:34.063Z,44.80
2022-08-18T15:28:01.161Z,46.60
2022-08-18T15:30:28.781Z,45.90
2022-08-18T15:32:55.871Z,44.80
2022-08-18T15:35:24.161Z,46.20
2022-08-18T15:37:52.124Z,45.60
2022-08-18T15:40:30.965Z,45.60
2022-08-18T15:43:10.342Z,45.60
2022-08-18T15:45:43.329Z,46.30
2022-08-18T15:48:26.160Z,46.10
2022-08-18T15:50:53.637Z,45.70
2022-08-18T15:53:29.984Z,46.50
2022-08-18T15:55:57.588Z,47.10
2022-08-18T15:58:26.884Z,46.50
2022-08-18T16:00:56.565Z,47.50
2022-08-18T16:03:26.156Z,46.90
2022-08-18T16:05:54.973Z,48.10
2022-08-18T16:08:24.984Z,47.20
2022-08-18T16:10:54.263Z,47.50
2022-08-18T16:13:24.651Z,47.70
2022-08-18T16:15:52.330Z,47.80
2022-08-18T16:18:23.904Z,47.50
2022-08-18T16:20:52.926Z,47.90
2022-08-18T16:23:23.822Z,47.60
2022-08-18T16:25:50.911Z,47.60
2022-08-18T16:28:17.911Z,47.70
2022-08-18T16:30:47.046Z,48.30
2022-08-18T16:33:13.999Z,47.50
2022-08-18T16:35:45.169Z,47.60
2022-08-18T16:38:13.923Z,47.60
2022-08-18T16:40:41.291Z,47.70
2022-08-18T16:43:09.015Z,48.20
2022-08-18T16:45:40.609Z,48.10
2022-08-18T16:48:08.289Z,47.90
2022-08-18T16:50:36.638Z,47.80
2022-08-18T16:53:04.934Z,48.00
2022-08-18T16:55:31.986Z,48.10
2022-08-18T16:58:17.601Z,47.80
2022-08-18T17:01:03.709Z,48.00
2022-08-18T17:03:49.024Z,47.80
2022-08-18T17:06:19.169Z,48.40
2022-08-18T17:08:47.100Z,48.60
2022-08-18T17:11:17.745Z,48.60
2022-08-18T17:13:46.792Z,49.00
2022-08-18T17:16:14.820Z,49.20
2022-08-18T17:18:43.338Z,49.60
2022-08-18T17:21:14.122Z,49.60
2022-08-18T17:23:42.217Z,50.30
2022-08-18T17:26:17.742Z,50.50
2022-08-18T17:28:53.835Z,50.70
2022-08-18T17:31:24.887Z,51.00
2022-08-18T17:33:57.353Z,52.00
2022-08-18T17:36:39.043Z,51.70
2022-08-18T17:39:11.001Z,51.70
2022-08-18T17:41:58.066Z,52.80
2022-08-18T17:44:31.165Z,53.10
2022-08-18T17:47:00.563Z,52.50
2022-08-18T17:50:04.287Z,52.60
2022-08-18T17:52:54.227Z,52.60
2022-08-18T17:55:34.576Z,52.10
2022-08-18T17:58:18.666Z,52.40
2022-08-18T18:00:45.832Z,52.50
2022-08-18T18:03:13.475Z,53.20
2022-08-18T18:05:53.383Z,53.10
2022-08-18T18:08:20.750Z,53.30
2022-08-18T18:11:03.904Z,53.80
2022-08-18T18:13:33.580Z,55.40
2022-08-18T18:16:22.265Z,54.50
2022-08-18T18:18:59.943Z,54.00
2022-08-18T18:21:53.431Z,53.90
2022-08-18T18:24:23.554Z,54.70
2022-08-18T18:26:52.340Z,56.10
2022-08-18T18:29:38.333Z,56.00
2022-08-18T18:32:24.834Z,55.10
2022-08-18T18:35:25.932Z,55.00
2022-08-18T18:38:23.598Z,54.80
2022-08-18T18:41:03.574Z,55.60
2022-08-18T18:43:33.600Z,55.30
2022-08-18T18:46:09.595Z,55.90
2022-08-18T18:49:06.673Z,57.50
2022-08-18T18:51:43.814Z,56.50
2022-08-18T18:54:40.613Z,55.90
2022-08-18T18:57:48.460Z,56.90
2022-08-18T19:00:21.052Z,56.70
2022-08-18T19:03:06.271Z,56.80
2022-08-18T19:05:39.305Z,59.70
2022-08-18T19:08:24.598Z,60.40
2022-08-18T19:11:10.437Z,60.40
2022-08-18T19:13:49.467Z,59.30
2022-08-18T19:16:47.457Z,59.00
2022-08-18T19:19:39.236Z,60.60
2022-08-18T19:22:11.543Z,60.30
2022-08-18T19:24:48.358Z,60.00
2022-08-18T19:27:23.503Z,59.30
2022-08-18T19:29:58.145Z,60.30
2022-08-18T19:32:34.902Z,61.40
2022-08-18T19:35:04.519Z,59.80
2022-08-18T19:37:57.400Z,59.40
2022-08-18T19:40:31.919Z,60.00
2022-08-18T19:43:14.675Z,58.80
2022-08-18T19:45:47.009Z,58.60
2022-08-18T19:48:33.178Z,58.20
2022-08-18T19:51:07.632Z,59.10
2022-08-18T19:53:56.502Z,58.10
2022-08-18T19:56:44.666Z,58.10
2022-08-18T19:59:27.289Z,58.40
2022-08-18T20:02:26.473Z,58.10
2022-08-18T20:05:06.646Z,58.40
2022-08-18T20:08:04.627Z,58.80
2022-08-18T20:10:54.768Z,58.00
2022-08-18T20:13:42.926Z,58.50
2022-08-18T20:16:24.962Z,59.00
2022-08-18T20:19:01.547Z,58.40
2022-08-18T20:21:48.177Z,58.70
2022-08-18T20:24:34.830Z,58.80
2022-08-18T20:27:35.412Z,58.70
2022-08-18T20:30:24.237Z,58.90
2022-08-18T20:33:10.142Z,59.60
2022-08-18T20:35:53.804Z,59.20
2022-08-18T20:38:28.492Z,59.30
2022-08-18T20:40:59.666Z,59.40
2022-08-18T20:43:31.170Z,60.30
2022-08-18T20:46:37.495Z,59.50
2022-08-18T20:49:43.187Z,59.90
2022-08-18T20:52:29.478Z,60.00
2022-08-18T20:55:23.342Z,59.80
2022-08-18T20:57:55.480Z,60.00
2022-08-18T21:00:27.311Z,59.80
2022-08-18T21:02:57.346Z,59.70
2022-08-18T21:05:39.704Z,60.10
2022-08-18T21:08:26.523Z,59.90
2022-08-18T21:10:58.080Z,60.00
2022-08-18T21:13:52.917Z,59.90
2022-08-18T21:16:38.011Z,59.60
2022-08-18T21:19:25.708Z,59.90
2022-08-18T21:22:01.965Z,59.70
2022-08-18T21:24:35.960Z,59.90
2022-08-18T21:27:05.038Z,59.80
2022-08-18T21:29:46.191Z,60.10
2022-08-18T21:32:22.987Z,60.30
2022-08-18T21:34:50.726Z,59.80
2022-08-18T21:37:19.138Z,59.90
2022-08-18T21:39:54.759Z,60.10
2022-08-18T21:42:41.147Z,60.20
2022-08-18T21:45:16.779Z,59.80
2022-08-18T21:47:51.138Z,60.10
2022-08-18T21:50:29.741Z,60.10
2022-08-18T21:53:00.121Z,60.30
2022-08-18T21:55:40.224Z,60.50
2022-08-18T21:58:10.133Z,60.90
2022-08-18T22:00:42.947Z,60.30
2022-08-18T22:03:25.322Z,60.30
2022-08-18T22:06:14.280Z,60.60
2022-08-18T22:08:50.028Z,61.10
2022-08-18T22:12:02.006Z,61.00
2022-08-18T22:14:54.408Z,60.80
2022-08-18T22:17:31.509Z,61.60
2022-08-18T22:20:35.840Z,61.60
2022-08-18T22:23:33.349Z,61.70
2022-08-18T22:26:15.326Z,61.90
2022-08-18T22:28:46.640Z,61.60
2022-08-18T22:31:18.150Z,61.60
2022-08-18T22:33:48.421Z,61.80
2022-08-18T22:36:23.430Z,61.80
2022-08-18T22:38:52.524Z,62.00
2022-08-18T22:41:20.724Z,62.00
2022-08-18T22:43:49.670Z,62.10
2022-08-18T22:46:24.329Z,62.20
2022-08-18T22:48:52.830Z,62.50
2022-08-18T22:51:24.265Z,63.00
2022-08-18T22:53:51.685Z,62.90
2022-08-18T22:56:27.391Z,63.60
2022-08-18T22:59:15.612Z,63.60
2022-08-18T23:01:47.089Z,63.70
2022-08-18T23:04:16.134Z,63.70
2022-08-18T23:06:51.234Z,63.60
2022-08-18T23:09:20.891Z,63.90
2022-08-18T23:11:48.705Z,64.30
2022-08-18T23:14:15.806Z,64.10
2022-08-18T23:16:45.523Z,64.40
2022-08-18T23:19:17.285Z,64.30
2022-08-18T23:21:46.483Z,65.00
2022-08-18T23:24:21.459Z,64.80
2022-08-18T23:26:49.888Z,65.40
2022-08-18T23:29:18.080Z,64.50
2022-08-18T23:31:45.706Z,65.00
2022-08-18T23:34:17.395Z,65.10
2022-08-18T23:36:46.239Z,65.40
2022-08-18T23:39:14.596Z,65.30
2022-08-18T23:41:42.210Z,65.20
2022-08-18T23:44:10.687Z,65.50
2022-08-18T23:46:39.838Z,65.60
2022-08-18T23:49:10.555Z,65.20
2022-08-18T23:51:44.351Z,65.80
2022-08-18T23:54:17.930Z,66.10
2022-08-18T23:56:46.442Z,66.50
2022-08-18T23:59:14.686Z,66.90
